Time;durP1;ratioP1;P1;durP2;ratioP2;P2;SDS_P1;SDS_P2;PMS_P1;PMS_P2;Temp;Humidity;BMP_temperature;BMP_pressure;BME280_temperature;BME280_humidity;BME280_pressure;Samples;Min_cycle;Max_cycle;Signal;HPM_P1;HPM_P2
2022/12/08 00:02:26;;;;;;;13.90;7.10;;;;;;;-1.49;75.00;99720.64;24539;1331;3026264;-70
2022/12/08 00:10:31;;;;;;;18.40;6.40;;;;;;;-1.52;76.00;99731.83;24596;1323;3056785;-69
2022/12/08 00:13:00;;;;;;;13.60;6.20;;;;;;;-1.48;75.98;99740.05;24540;1331;3026201;-68
2022/12/08 00:15:29;;;;;;;16.10;6.30;;;;;;;-1.49;75.99;99737.13;24637;1331;3048701;-68
2022/12/08 00:17:58;;;;;;;10.90;5.60;;;;;;;-1.45;76.34;99737.45;24572;1331;3025998;-70
2022/12/08 00:20:31;;;;;;;11.70;5.90;;;;;;;-1.41;76.09;99727.80;24584;1324;3068751;-68
2022/12/08 00:23:00;;;;;;;12.20;6.30;;;;;;;-1.38;75.49;99720.20;24526;1331;3026076;-69
2022/12/08 00:25:30;;;;;;;12.20;6.00;;;;;;;-1.40;75.54;99713.00;24604;1331;3048140;-67
2022/12/08 00:27:59;;;;;;;15.00;7.30;;;;;;;-1.46;75.61;99710.31;24608;1324;3026939;-70
2022/12/08 00:30:28;;;;;;;14.20;6.40;;;;;;;-1.48;75.82;99708.27;24567;1330;3026499;-66
2022/12/08 00:32:57;;;;;;;11.20;5.30;;;;;;;-1.57;76.16;99699.58;24616;1331;3048878;-64
2022/12/08 00:35:25;;;;;;;16.50;6.30;;;;;;;-1.59;76.05;99706.45;24595;1323;3025913;-67
2022/12/08 00:37:54;;;;;;;11.50;5.90;;;;;;;-1.58;76.13;99704.04;24531;1331;3051607;-64
2022/12/08 00:40:24;;;;;;;13.50;6.10;;;;;;;-1.52;75.63;99704.85;24522;1331;3028483;-70
2022/12/08 00:42:53;;;;;;;12.90;6.80;;;;;;;-1.45;75.53;99709.27;24562;1331;3025815;-69
2022/12/08 00:45:22;;;;;;;13.80;6.40;;;;;;;-1.45;75.04;99715.63;24534;1325;3051487;-68
2022/12/08 00:47:50;;;;;;;14.20;6.70;;;;;;;-1.43;75.26;99711.33;24602;1323;3028767;-68
2022/12/08 00:50:19;;;;;;;10.00;4.60;;;;;;;-1.45;75.01;99715.98;24559;1328;3050608;-68
2022/12/08 00:52:48;;;;;;;14.30;6.90;;;;;;;-1.40;75.33;99721.25;24559;1329;3025826;-68
2022/12/08 00:55:17;;;;;;;13.10;5.90;;;;;;;-1.34;75.03;99720.52;24612;1330;3051863;-67
2022/12/08 00:57:46;;;;;;;12.40;6.40;;;;;;;-1.35;74.71;99720.35;24491;1331;3026992;-69
2022/12/08 03:12:55;;;;;;;7.70;3.70;;;;;;;-1.36;79.32;99706.45;30700;1332;3013546;-68
2022/12/08 03:15:24;;;;;;;16.20;6.60;;;;;;;-0.66;78.02;99713.52;24474;1334;3068658;-69
2022/12/08 03:17:55;;;;;;;10.80;5.20;;;;;;;0.13;75.32;99701.52;24488;1332;3028719;-67
2022/12/08 03:20:24;;;;;;;10.80;5.10;;;;;;;0.32;74.20;99698.16;24479;1346;3049835;-68
2022/12/08 03:22:55;;;;;;;15.60;5.90;;;;;;;0.44;73.91;99700.55;24483;1335;3025411;-65
2022/12/08 03:25:26;;;;;;;12.60;5.70;;;;;;;0.35;73.40;99709.98;23839;1340;4461624;-64
2022/12/08 03:27:55;;;;;;;13.00;6.00;;;;;;;0.06;74.53;99708.16;24485;1337;3049393;-64
2022/12/08 03:30:25;;;;;;;14.80;6.10;;;;;;;-0.15;75.62;99711.18;24481;1326;3028676;-67
2022/12/08 03:33:03;;;;;;;15.30;7.00;;;;;;;-0.21;76.01;99703.36;24495;1333;3052478;-69
2022/12/08 03:35:34;;;;;;;13.70;6.80;;;;;;;-0.31;76.51;99707.28;24546;1333;3049512;-68
2022/12/08 03:38:04;;;;;;;13.60;6.30;;;;;;;-0.39;76.99;99710.64;24485;1333;3026016;-67
2022/12/08 03:40:33;;;;;;;14.50;6.30;;;;;;;-0.37;77.38;99719.90;24559;1334;3028915;-69
2022/12/08 03:43:02;;;;;;;10.90;5.50;;;;;;;-0.41;77.98;99720.30;24533;1333;3026845;-66
2022/12/08 03:45:33;;;;;;;15.40;6.80;;;;;;;-0.41;78.14;99715.13;24486;1326;3069068;-64
2022/12/08 03:48:02;;;;;;;15.60;6.80;;;;;;;-0.43;78.42;99715.84;24479;1333;3026378;-65
2022/12/08 03:50:31;;;;;;;18.30;6.90;;;;;;;-0.39;78.53;99717.19;24513;1327;3049149;-66
2022/12/08 03:53:00;;;;;;;18.10;6.90;;;;;;;-0.45;78.96;99721.04;24512;1333;3025790;-65
2022/12/08 03:55:29;;;;;;;15.50;6.60;;;;;;;-0.52;79.66;99723.52;24478;1341;3052353;-64
2022/12/08 03:57:58;;;;;;;16.60;7.80;;;;;;;-0.40;79.17;99724.23;24464;1325;3026059;-66
2022/12/08 04:00:27;;;;;;;16.40;7.10;;;;;;;-0.57;79.94;99719.96;24530;1326;3050314;-66
2022/12/08 04:02:56;;;;;;;7.90;3.60;;;;;;;-0.54;80.17;99710.98;24536;1333;3026518;-66
2022/12/08 04:05:24;;;;;;;13.80;5.50;;;;;;;0.17;79.38;99707.65;24495;1335;3052441;-67
2022/12/08 04:07:56;;;;;;;9.90;4.30;;;;;;;0.91;76.40;99704.95;24563;1327;3025384;-66
2022/12/08 04:10:25;;;;;;;14.50;5.30;;;;;;;1.05;75.02;99707.99;24529;1326;3052509;-66
2022/12/08 04:12:58;;;;;;;14.90;6.20;;;;;;;0.91;74.87;99707.19;24560;1338;3026425;-67
2022/12/08 04:15:27;;;;;;;13.00;5.90;;;;;;;0.71;75.79;99708.58;24516;1326;3056206;-68
2022/12/08 04:17:56;;;;;;;14.70;7.00;;;;;;;0.60;75.99;99711.16;24544;1333;3028824;-65
2022/12/08 04:20:25;;;;;;;14.80;6.90;;;;;;;0.25;77.10;99715.66;24525;1333;3048765;-68
2022/12/08 04:22:54;;;;;;;13.70;6.50;;;;;;;0.10;78.38;99718.10;24535;1326;3026146;-67
2022/12/08 04:25:22;;;;;;;15.40;6.90;;;;;;;-0.19;79.39;99715.57;24526;1331;3069217;-68
2022/12/08 04:27:51;;;;;;;14.00;5.90;;;;;;;-0.24;80.17;99712.17;24528;1339;3026069;-70
2022/12/08 04:30:20;;;;;;;15.80;6.80;;;;;;;-0.30;80.67;99713.11;24568;1325;3047212;-67
2022/12/08 04:32:49;;;;;;;12.80;5.70;;;;;;;-0.24;80.51;99711.14;24513;1327;3026386;-68
2022/12/08 04:35:18;;;;;;;14.10;5.70;;;;;;;-0.15;80.30;99707.09;24524;1333;3052745;-68
2022/12/08 04:37:47;;;;;;;13.50;6.10;;;;;;;-0.18;80.42;99707.45;24497;1333;3027595;-68
2022/12/08 04:40:17;;;;;;;15.40;6.00;;;;;;;-0.13;80.49;99712.21;24567;1331;3026283;-69
2022/12/08 04:42:46;;;;;;;13.80;6.20;;;;;;;-0.25;80.86;99713.22;24566;1343;3052005;-70
2022/12/08 04:45:16;;;;;;;17.80;7.00;;;;;;;-0.30;81.41;99713.80;24517;1326;3028683;-66
2022/12/08 04:47:45;;;;;;;12.80;4.40;;;;;;;-0.38;81.66;99709.94;24519;1327;3026215;-70
2022/12/08 04:50:14;;;;;;;14.30;6.00;;;;;;;0.23;80.88;99709.48;24541;1333;3051471;-69
2022/12/08 04:52:43;;;;;;;14.10;5.00;;;;;;;0.90;78.20;99709.45;24480;1322;3028516;-68
2022/12/08 04:55:12;;;;;;;11.40;5.70;;;;;;;1.12;77.18;99712.19;24521;1333;3049925;-68
2022/12/08 04:57:41;;;;;;;14.10;5.80;;;;;;;0.94;77.34;99721.80;24490;1341;3025985;-65
2022/12/08 05:00:11;;;;;;;15.30;6.90;;;;;;;0.82;77.26;99723.91;24472;1339;3053354;-65
2022/12/08 05:02:40;;;;;;;16.30;6.40;;;;;;;0.76;77.84;99728.83;24438;1326;3025890;-65
2022/12/08 05:05:09;;;;;;;18.40;6.60;;;;;;;0.66;78.37;99733.15;24480;1326;3025795;-65
2022/12/08 05:07:38;;;;;;;12.60;5.70;;;;;;;0.57;78.33;99733.61;24515;1333;3053037;-66
2022/12/08 05:10:07;;;;;;;16.60;6.60;;;;;;;0.37;79.38;99727.54;24493;1340;3028734;-65
2022/12/08 05:12:36;;;;;;;12.80;5.80;;;;;;;0.26;80.10;99732.86;24483;1333;3051202;-65
2022/12/08 05:15:32;;;;;;;15.50;6.80;;;;;;;0.10;81.06;99736.02;24475;1318;3055481;-65
2022/12/08 05:18:06;;;;;;;14.80;6.20;;;;;;;-0.03;81.92;99733.95;24449;1328;3050175;-65
2022/12/08 05:20:35;;;;;;;13.40;6.00;;;;;;;-0.12;82.39;99733.56;24440;1341;3028612;-67
2022/12/08 05:23:04;;;;;;;16.40;6.90;;;;;;;-0.21;82.84;99740.36;24537;1333;3028820;-65
2022/12/08 05:25:33;;;;;;;9.00;4.80;;;;;;;-0.21;83.57;99745.02;24511;1333;3050081;-65
2022/12/08 05:28:03;;;;;;;10.50;5.20;;;;;;;0.36;82.74;99747.53;24521;1333;3026997;-67
2022/12/08 05:30:32;;;;;;;11.60;5.20;;;;;;;0.99;80.23;99743.64;24525;1334;3028608;-69
2022/12/08 05:33:01;;;;;;;18.60;5.90;;;;;;;1.23;78.83;99747.70;24514;1335;3026701;-68
2022/12/08 05:35:30;;;;;;;12.00;5.50;;;;;;;1.13;78.70;99747.21;24506;1333;3052179;-68
2022/12/08 05:37:59;;;;;;;13.00;5.70;;;;;;;0.99;79.01;99750.19;24494;1340;3026492;-68
2022/12/08 05:40:27;;;;;;;10.70;5.40;;;;;;;0.93;79.42;99747.70;24534;1324;3052406;-66
2022/12/08 05:42:58;;;;;;;13.60;6.20;;;;;;;0.69;79.89;99752.57;24532;1334;3026348;-68
2022/12/08 05:45:27;;;;;;;12.90;6.00;;;;;;;0.51;80.66;99756.46;24490;1328;3053149;-66
2022/12/08 05:47:56;;;;;;;13.10;5.70;;;;;;;0.37;81.32;99753.40;24568;1326;3029067;-65
2022/12/08 05:50:25;;;;;;;10.00;5.20;;;;;;;0.32;82.26;99758.13;24513;1318;3051523;-66
2022/12/08 05:52:57;;;;;;;12.50;5.90;;;;;;;0.26;82.18;99760.79;24534;1333;3026446;-69
2022/12/08 05:55:26;;;;;;;15.30;6.40;;;;;;;0.27;82.29;99765.77;24541;1333;3026641;-70
2022/12/08 05:57:55;;;;;;;16.50;6.70;;;;;;;0.15;82.82;99774.55;24516;1325;3050988;-69
2022/12/08 06:00:23;;;;;;;10.60;4.90;;;;;;;0.19;82.67;99783.10;24669;1333;3026356;-69
2022/12/08 06:02:52;;;;;;;12.30;6.10;;;;;;;0.85;82.10;99784.55;24510;1325;3055600;-69
2022/12/08 06:05:21;;;;;;;12.60;5.80;;;;;;;1.48;78.97;99791.79;24533;1342;3025721;-68
2022/12/08 06:07:50;;;;;;;9.00;5.20;;;;;;;1.44;78.12;99793.94;24530;1326;3048940;-68
2022/12/08 06:10:19;;;;;;;10.70;5.80;;;;;;;1.36;78.33;99793.56;24588;1326;3025824;-69
2022/12/08 06:12:49;;;;;;;11.90;6.30;;;;;;;1.30;78.48;99796.77;24525;1329;3067517;-69
2022/12/08 06:15:18;;;;;;;12.00;6.30;;;;;;;1.36;78.97;99804.27;24699;1332;3027707;-66
2022/12/08 06:17:47;;;;;;;13.90;6.60;;;;;;;1.17;78.77;99800.09;24543;1334;3050477;-67
2022/12/08 06:20:16;;;;;;;12.70;5.50;;;;;;;1.00;79.63;99795.89;24591;1334;3025844;-68
2022/12/08 06:22:45;;;;;;;14.80;6.10;;;;;;;0.90;79.71;99796.56;24571;1326;3052070;-66
2022/12/08 06:25:14;;;;;;;10.10;5.60;;;;;;;0.85;80.65;99800.80;24576;1333;3028642;-63
2022/12/08 06:27:43;;;;;;;13.90;5.90;;;;;;;0.84;80.73;99798.90;24510;1333;3050694;-67
2022/12/08 06:30:12;;;;;;;14.20;6.60;;;;;;;0.82;80.86;99800.14;24673;1318;3028494;-66
2022/12/08 06:32:41;;;;;;;16.10;6.40;;;;;;;0.79;81.03;99805.52;24564;1333;3051975;-68
2022/12/08 06:35:10;;;;;;;15.40;6.90;;;;;;;0.68;81.15;99801.38;24582;1332;3028600;-70
2022/12/08 06:37:39;;;;;;;10.30;5.40;;;;;;;0.73;81.64;99803.21;24604;1332;3050415;-70
2022/12/08 06:40:09;;;;;;;10.40;4.80;;;;;;;1.19;81.04;99801.09;24663;1324;3025143;-67
2022/12/08 06:42:45;;;;;;;10.10;5.20;;;;;;;1.83;78.65;99797.55;24554;1333;3057135;-66
2022/12/08 06:45:16;;;;;;;11.10;5.90;;;;;;;1.88;77.71;99786.38;24659;1324;3053564;-68
2022/12/08 06:47:45;;;;;;;11.80;6.40;;;;;;;1.78;77.80;99780.89;24578;1331;3026002;-69
2022/12/08 06:50:17;;;;;;;15.90;6.20;;;;;;;1.58;78.34;99787.11;24575;1330;3025944;-67
2022/12/08 06:52:46;;;;;;;15.10;6.20;;;;;;;1.47;78.76;99784.03;24567;1334;3026058;-68
2022/12/08 06:55:15;;;;;;;15.60;5.70;;;;;;;1.27;79.06;99786.48;24603;1333;3051816;-67
2022/12/08 06:57:44;;;;;;;12.70;5.60;;;;;;;1.09;79.68;99793.15;24599;1332;3026188;-68
2022/12/08 07:00:15;;;;;;;15.00;6.30;;;;;;;1.02;80.23;99792.23;24611;1331;3051258;-67
2022/12/08 07:02:45;;;;;;;13.40;6.30;;;;;;;1.01;80.31;99795.52;24582;1334;3026362;-68
2022/12/08 07:05:17;;;;;;;15.20;6.80;;;;;;;0.82;80.86;99800.83;24604;1331;3026441;-70
2022/12/08 07:07:46;;;;;;;16.50;6.30;;;;;;;0.81;81.45;99799.65;24649;1332;3026482;-69
2022/12/08 07:10:15;;;;;;;14.90;7.00;;;;;;;0.82;81.68;99798.25;24640;1333;3052579;-65
2022/12/08 07:13:08;;;;;;;21.60;7.40;;;;;;;0.77;81.92;99811.25;24589;1323;3051424;-69
2022/12/08 07:15:39;;;;;;;17.40;7.60;;;;;;;0.58;82.23;99813.24;24612;1334;3025153;-73
2022/12/08 07:18:08;;;;;;;12.10;5.10;;;;;;;0.61;82.46;99814.08;24604;1323;3025325;-70
2022/12/08 07:20:42;;;;;;;13.20;5.50;;;;;;;1.26;81.63;99812.70;24617;1323;3050602;-74
2022/12/08 07:23:11;;;;;;;17.40;6.30;;;;;;;1.96;78.85;99807.27;24597;1325;3028841;-68
2022/12/08 07:25:40;;;;;;;16.60;7.10;;;;;;;2.02;77.66;99811.48;24600;1333;3052068;-69
2022/12/08 07:28:10;;;;;;;18.30;7.70;;;;;;;1.82;77.51;99810.84;24601;1316;3026417;-74
2022/12/08 07:30:39;;;;;;;17.80;8.00;;;;;;;1.77;77.87;99817.16;24555;1331;3025646;-69
2022/12/08 07:33:12;;;;;;;17.20;7.30;;;;;;;1.64;78.21;99818.61;24644;1333;3052399;-72
2022/12/08 07:35:43;;;;;;;16.20;7.30;;;;;;;1.55;78.46;99813.23;24557;1333;3051684;-77
2022/12/08 07:38:13;;;;;;;14.10;7.00;;;;;;;1.39;78.91;99813.00;24567;1333;3026453;-73
2022/12/08 07:40:41;;;;;;;15.40;7.40;;;;;;;1.20;79.53;99820.74;24597;1331;3026049;-72
2022/12/08 07:43:10;;;;;;;15.10;6.50;;;;;;;1.06;80.22;99816.49;24641;1323;3051085;-74
2022/12/08 07:45:40;;;;;;;15.50;6.60;;;;;;;1.05;80.11;99823.06;24595;1309;3027413;-71
2022/12/08 07:48:09;;;;;;;13.00;6.90;;;;;;;1.04;80.48;99823.07;24619;1332;3052851;-70
2022/12/08 07:50:38;;;;;;;13.40;5.80;;;;;;;0.95;80.73;99825.11;24642;1323;3025871;-70
2022/12/08 07:53:07;;;;;;;11.00;5.30;;;;;;;0.91;81.49;99828.11;24568;1332;3051606;-72
2022/12/08 07:55:40;;;;;;;9.40;4.30;;;;;;;0.98;80.87;99828.16;24610;1331;3025881;-71
2022/12/08 07:58:34;;;;;;;8.20;4.30;;;;;;;1.57;79.83;99827.20;24593;1332;3055912;-66
2022/12/08 08:01:03;;;;;;;14.40;4.60;;;;;;;2.20;77.60;99822.52;24573;1325;3026531;-73
2022/12/08 08:03:32;;;;;;;10.10;5.30;;;;;;;2.34;76.52;99819.65;24592;1327;3048488;-73
2022/12/08 08:06:04;;;;;;;11.60;5.60;;;;;;;2.21;76.40;99820.61;24549;1331;3025048;-76
2022/12/08 08:08:36;;;;;;;10.40;5.60;;;;;;;2.14;76.55;99813.52;24606;1323;3069645;-70
2022/12/08 08:11:06;;;;;;;11.80;5.10;;;;;;;2.00;76.89;99810.33;24582;1333;3026425;-73
2022/12/08 08:13:36;;;;;;;12.40;5.50;;;;;;;1.85;77.14;99814.59;24736;1325;3027986;-74
2022/12/08 08:16:06;;;;;;;11.20;6.10;;;;;;;1.80;77.42;99810.72;24537;1323;3026560;-72
2022/12/08 08:18:37;;;;;;;14.60;6.40;;;;;;;1.60;78.19;99810.55;24534;1334;3049467;-70
2022/12/08 08:21:06;;;;;;;13.70;6.50;;;;;;;1.56;78.60;99812.88;24585;1330;3026119;-73
2022/12/08 08:23:35;;;;;;;10.60;5.20;;;;;;;1.47;78.68;99815.45;24535;1331;3068854;-67
2022/12/08 08:26:04;;;;;;;14.00;6.10;;;;;;;1.39;79.06;99817.16;24592;1332;3026193;-69
2022/12/08 08:28:33;;;;;;;12.90;6.50;;;;;;;1.41;78.98;99819.54;24628;1332;3026028;-66
2022/12/08 08:31:02;;;;;;;14.90;6.20;;;;;;;1.38;79.11;99819.24;24593;1333;3068647;-73
2022/12/08 08:33:31;;;;;;;13.10;6.00;;;;;;;1.37;79.33;99813.40;24595;1324;3026273;-70
2022/12/08 08:36:06;;;;;;;12.90;5.70;;;;;;;1.35;79.33;99812.73;24581;1320;3048806;-68
2022/12/08 08:38:35;;;;;;;;;;;;;;;1.30;79.60;99815.94;24538;1330;3068769;-69
2022/12/08 08:41:08;;;;;;;13.40;5.50;;;;;;;1.28;80.01;99818.72;24567;1333;3024992;-69
2022/12/08 08:43:37;;;;;;;12.80;5.50;;;;;;;1.24;79.92;99820.19;24579;1323;3027142;-71
2022/12/08 08:46:07;;;;;;;11.00;5.20;;;;;;;1.21;80.01;99812.46;24585;1332;3025972;-68
2022/12/08 08:48:38;;;;;;;9.00;4.30;;;;;;;1.81;78.61;99814.15;24584;1323;3050480;-70
2022/12/08 08:51:08;;;;;;;8.70;4.20;;;;;;;2.49;76.30;99809.46;24571;1323;3028383;-71
2022/12/08 08:53:37;;;;;;;12.00;5.40;;;;;;;2.57;75.01;99807.92;24550;1324;3071026;-72
2022/12/08 08:56:09;;;;;;;11.20;5.00;;;;;;;2.38;74.83;99810.58;24564;1331;3026042;-71
2022/12/08 08:58:40;;;;;;;11.90;5.40;;;;;;;2.18;75.77;99815.66;24595;1326;3027033;-71
2022/12/08 09:01:13;;;;;;;11.50;5.80;;;;;;;2.04;76.19;99817.31;24614;1327;3025992;-70
2022/12/08 09:03:44;;;;;;;16.40;6.00;;;;;;;1.89;76.88;99809.50;24643;1318;3054149;-70
2022/12/08 09:06:16;;;;;;;14.80;7.10;;;;;;;1.79;77.49;99813.67;24613;1331;3026278;-70
2022/12/08 09:08:46;;;;;;;16.70;7.60;;;;;;;1.65;78.00;99821.70;24715;1334;3026142;-72
2022/12/08 09:11:47;;;;;;;13.30;6.10;;;;;;;1.49;78.69;99823.02;24605;1329;3048809;-69
2022/12/08 09:14:16;;;;;;;14.40;5.80;;;;;;;1.48;79.31;99823.23;24567;1326;3025912;-66
2022/12/08 09:16:45;;;;;;;15.00;6.00;;;;;;;1.45;79.37;99822.05;24570;1329;3026268;-72
2022/12/08 09:19:14;;;;;;;15.50;6.70;;;;;;;1.43;79.69;99820.70;24453;1340;3049109;-69
2022/12/08 09:21:46;;;;;;;12.00;6.40;;;;;;;1.38;80.10;99831.32;24574;1323;3027276;-69
2022/12/08 09:24:15;;;;;;;12.30;5.90;;;;;;;1.36;80.27;99831.70;24602;1323;3029026;-69
2022/12/08 09:26:44;;;;;;;12.90;6.00;;;;;;;1.30;80.17;99823.00;24638;1336;3048294;-69
2022/12/08 09:29:14;;;;;;;12.80;6.30;;;;;;;1.32;80.78;99819.52;24622;1325;3026148;-72
2022/12/08 09:31:43;;;;;;;8.30;4.50;;;;;;;1.28;80.59;99813.88;24583;1331;3026328;-73
2022/12/08 09:34:12;;;;;;;6.30;3.80;;;;;;;1.79;79.86;99805.52;24461;1331;3026437;-70
2022/12/08 09:36:40;;;;;;;11.00;4.90;;;;;;;2.56;77.51;99806.39;24509;1334;3068165;-69
2022/12/08 09:39:13;;;;;;;12.20;4.60;;;;;;;2.78;75.53;99813.85;24570;1324;3026179;-70
2022/12/08 09:41:44;;;;;;;11.60;5.40;;;;;;;2.53;75.82;99812.31;24592;1337;3028040;-70
2022/12/08 09:44:19;;;;;;;13.00;5.80;;;;;;;2.45;76.01;99808.86;24577;1331;3067034;-75
2022/12/08 09:46:50;;;;;;;12.00;5.30;;;;;;;2.28;76.81;99809.92;24701;1331;3049673;-67
2022/12/08 09:49:21;;;;;;;12.30;5.40;;;;;;;2.14;77.26;99807.09;24575;1340;3026235;-74
2022/12/08 09:51:50;;;;;;;9.90;5.00;;;;;;;2.01;77.57;99809.44;24620;1328;3029103;-71
2022/12/08 09:54:21;;;;;;;12.20;5.30;;;;;;;1.93;77.70;99804.77;24525;1332;3026312;-72
2022/12/08 09:56:51;;;;;;;14.80;5.70;;;;;;;1.80;78.24;99807.78;24641;1332;3056413;-69
2022/12/08 09:59:40;;;;;;;12.90;5.30;;;;;;;1.70;78.65;99812.46;24570;1333;3026768;-67
2022/12/08 10:02:29;;;;;;;14.80;5.70;;;;;;;1.67;78.76;99810.09;24543;1330;3053381;-72
2022/12/08 10:04:59;;;;;;;11.70;5.50;;;;;;;1.66;78.88;99810.44;24551;1329;3051508;-72
2022/12/08 10:08:06;;;;;;;13.90;6.30;;;;;;;1.66;79.03;99812.70;24601;1322;3028852;-72
2022/12/08 10:10:41;;;;;;;13.40;6.30;;;;;;;1.53;80.16;99812.58;24482;1340;3053525;-71
2022/12/08 10:13:15;;;;;;;11.80;5.90;;;;;;;1.55;80.70;99808.92;24623;1333;3050698;-75
2022/12/08 10:16:27;;;;;;;7.00;3.80;;;;;;;1.56;80.68;99807.02;24547;1329;3053072;-73
2022/12/08 10:19:01;;;;;;;7.40;3.40;;;;;;;2.24;78.76;99801.17;24523;1346;3050050;-72
2022/12/08 10:21:30;;;;;;;7.60;3.90;;;;;;;2.77;76.53;99803.50;24562;1331;3067941;-70
2022/12/08 10:24:03;;;;;;;7.60;3.90;;;;;;;2.88;75.36;99799.93;24501;1331;3026021;-70
2022/12/08 10:26:32;;;;;;;8.20;4.60;;;;;;;2.78;75.53;99801.21;24530;1340;3028678;-71
2022/12/08 10:29:01;;;;;;;7.80;4.80;;;;;;;2.49;76.54;99803.61;24500;1334;3026710;-69
2022/12/08 10:31:31;;;;;;;9.00;4.70;;;;;;;2.21;77.21;99804.19;24540;1332;3049553;-73
2022/12/08 10:34:09;;;;;;;10.50;4.60;;;;;;;2.21;77.51;99806.10;24602;1325;3026744;-74
2022/12/08 10:36:46;;;;;;;9.40;4.30;;;;;;;2.04;77.81;99804.01;24598;1327;3052511;-77
2022/12/08 10:39:33;;;;;;;9.90;5.30;;;;;;;1.93;78.84;99801.48;24565;1326;3053196;-75
2022/12/08 10:42:13;;;;;;;7.30;4.70;;;;;;;1.86;79.19;99801.09;24634;1334;3051855;-71
2022/12/08 10:45:02;;;;;;;7.70;4.10;;;;;;;1.82;79.29;99798.23;24730;1324;3051938;-74
2022/12/08 10:47:34;;;;;;;7.20;4.40;;;;;;;1.80;79.90;99802.41;24644;1330;3048544;-77
2022/12/08 10:50:22;;;;;;;8.80;4.70;;;;;;;1.79;79.77;99805.03;24598;1332;3026540;-78
2022/12/08 10:53:16;;;;;;;8.90;4.50;;;;;;;1.75;80.08;99805.80;24658;1340;3049885;-75
2022/12/08 10:56:04;;;;;;;8.60;4.30;;;;;;;1.74;80.38;99812.36;24600;1337;3056008;-76
2022/12/08 10:58:44;;;;;;;7.10;2.80;;;;;;;1.66;80.50;99808.55;24605;1334;3051427;-70
2022/12/08 11:01:17;;;;;;;7.10;3.20;;;;;;;2.38;79.12;99802.95;24598;1332;3052427;-74
2022/12/08 11:03:59;;;;;;;7.60;4.20;;;;;;;3.09;76.55;99796.30;24590;1330;3052456;-74
2022/12/08 11:06:28;;;;;;;8.60;4.70;;;;;;;2.98;75.69;99789.50;24737;1331;3052818;-76
2022/12/08 11:09:24;;;;;;;7.10;3.70;;;;;;;2.88;75.91;99790.44;24733;1331;3026118;-75
2022/12/08 11:11:55;;;;;;;9.70;3.90;;;;;;;2.66;76.49;99790.09;24615;1335;3051014;-71
2022/12/08 11:14:25;;;;;;;8.00;4.30;;;;;;;2.47;76.71;99786.01;24712;1328;3026958;-75
2022/12/08 11:17:07;;;;;;;8.60;4.20;;;;;;;2.39;77.25;99783.23;24719;1334;3026195;-76
2022/12/08 11:19:38;;;;;;;8.10;3.60;;;;;;;2.23;77.84;99779.77;24726;1331;3068642;-75
2022/12/08 11:22:29;;;;;;;6.40;3.80;;;;;;;2.08;78.30;99779.41;24679;1336;3029049;-72
2022/12/08 11:25:09;;;;;;;8.10;4.10;;;;;;;1.88;79.62;99778.41;24657;1323;3056847;-76
2022/12/08 11:27:42;;;;;;;7.30;3.70;;;;;;;1.84;79.70;99776.59;24633;1330;3050901;-70
2022/12/08 11:30:22;;;;;;;10.50;4.60;;;;;;;1.79;80.09;99777.38;24614;1332;3026270;-73
2022/12/08 11:33:00;;;;;;;7.70;4.30;;;;;;;1.64;81.06;99773.36;24609;1330;3051109;-76
2022/12/08 11:35:32;;;;;;;10.10;3.90;;;;;;;1.67;81.31;99769.68;24668;1337;3052846;-75
2022/12/08 11:38:04;;;;;;;8.10;3.70;;;;;;;1.63;81.70;99768.20;24615;1331;3026941;-73
2022/12/08 11:40:35;;;;;;;6.40;3.40;;;;;;;2.20;80.51;99756.86;24548;1335;3027545;-73
2022/12/08 11:43:33;;;;;;;7.50;3.30;;;;;;;2.86;77.91;99745.14;24621;1324;3049269;-72
2022/12/08 11:46:09;;;;;;;9.00;4.00;;;;;;;3.00;76.39;99746.35;24546;1325;3055923;-77
2022/12/08 11:48:47;;;;;;;8.10;3.90;;;;;;;2.86;76.16;99747.75;24688;1315;3052517;-72
2022/12/08 11:51:26;;;;;;;7.10;4.00;;;;;;;2.66;76.75;99749.08;24684;1325;3052890;-73
2022/12/08 11:53:58;;;;;;;8.80;4.20;;;;;;;2.51;77.28;99740.94;24501;1327;3050955;-72
2022/12/08 11:56:33;;;;;;;7.80;4.00;;;;;;;2.28;78.10;99746.31;24565;1329;3026881;-72
2022/12/08 11:59:18;;;;;;;7.30;4.40;;;;;;;2.20;78.65;99742.34;24619;1339;3048562;-71
2022/12/08 12:01:47;;;;;;;8.30;4.70;;;;;;;2.09;78.79;99745.15;24588;1327;3069563;-71
2022/12/08 12:04:36;;;;;;;11.60;5.20;;;;;;;2.06;79.27;99742.11;24593;1331;3026879;-70
2022/12/08 12:07:11;;;;;;;11.70;5.50;;;;;;;1.94;79.79;99746.69;24554;1336;3048762;-73
2022/12/08 12:10:03;;;;;;;8.50;4.90;;;;;;;1.90;80.33;99750.40;24545;1325;3068714;-73
2022/12/08 12:12:53;;;;;;;8.20;4.10;;;;;;;1.88;80.36;99749.40;24563;1325;3050157;-73
2022/12/08 12:15:52;;;;;;;11.30;5.10;;;;;;;1.78;80.53;99746.83;24679;1333;3057091;-69
2022/12/08 12:18:59;;;;;;;9.80;3.50;;;;;;;1.74;81.18;99745.71;24914;1327;3051172;-67
2022/12/08 12:21:38;;;;;;;6.00;2.80;;;;;;;2.65;78.74;99738.36;24594;1337;3052396;-70
2022/12/08 12:24:09;;;;;;;12.60;5.40;;;;;;;3.01;76.73;99740.09;24568;1337;3051351;-70
2022/12/08 12:26:40;;;;;;;9.00;4.20;;;;;;;2.96;76.54;99743.15;24613;1324;3028211;-70
2022/12/08 12:29:17;;;;;;;8.50;4.50;;;;;;;3.00;76.66;99743.23;24571;1327;3026607;-68
2022/12/08 12:31:52;;;;;;;8.60;4.50;;;;;;;2.83;76.60;99742.10;24600;1336;3069129;-69
2022/12/08 12:34:24;;;;;;;9.80;5.30;;;;;;;2.71;77.21;99744.82;24584;1325;3050067;-69
2022/12/08 12:36:57;;;;;;;10.70;5.50;;;;;;;2.50;78.04;99746.52;24582;1329;3026956;-68
2022/12/08 12:39:28;;;;;;;10.50;5.10;;;;;;;2.28;78.64;99746.15;24620;1330;3025295;-70
2022/12/08 12:42:02;;;;;;;11.40;5.70;;;;;;;2.19;79.37;99749.44;24574;1323;3027065;-68
2022/12/08 12:44:31;;;;;;;12.10;4.50;;;;;;;2.13;79.84;99757.69;24573;1328;3026002;-70
2022/12/08 12:47:04;;;;;;;13.20;5.70;;;;;;;2.06;79.68;99758.35;24637;1330;3028435;-70
2022/12/08 12:49:39;;;;;;;8.90;4.70;;;;;;;2.07;80.01;99761.27;24601;1333;3025986;-69
2022/12/08 12:52:08;;;;;;;9.70;4.90;;;;;;;2.09;79.52;99759.17;24604;1330;3068803;-72
2022/12/08 12:54:41;;;;;;;11.90;6.20;;;;;;;2.00;80.05;99766.09;24574;1329;3026119;-71
2022/12/08 12:57:10;;;;;;;8.50;4.10;;;;;;;1.91;80.78;99767.99;24609;1330;3049835;-69
2022/12/08 12:59:39;;;;;;;10.00;4.60;;;;;;;2.42;80.04;99762.92;24590;1323;3026234;-72
2022/12/08 13:02:19;;;;;;;9.60;4.60;;;;;;;3.05;77.97;99759.38;24764;1324;3050748;-68
2022/12/08 13:05:02;;;;;;;9.20;4.80;;;;;;;3.23;77.00;99757.03;24713;1336;3049324;-69
2022/12/08 13:07:55;;;;;;;10.40;5.30;;;;;;;3.13;76.74;99760.23;24701;1330;3069073;-69
2022/12/08 13:10:58;;;;;;;10.60;5.80;;;;;;;2.86;77.65;99756.89;24569;1329;3051420;-69
2022/12/08 13:13:27;;;;;;;12.30;5.00;;;;;;;2.67;78.21;99758.55;24559;1332;3056247;-72
2022/12/08 13:16:09;;;;;;;10.40;5.90;;;;;;;2.53;78.88;99766.14;24595;1342;3025871;-68
2022/12/08 13:18:42;;;;;;;13.50;5.90;;;;;;;2.46;78.93;99766.98;24550;1330;3049907;-73
2022/12/08 13:21:15;;;;;;;13.10;5.80;;;;;;;2.37;79.28;99766.34;24517;1333;3026060;-73
2022/12/08 13:23:45;;;;;;;13.80;6.00;;;;;;;2.27;79.67;99768.95;24624;1329;3024894;-74
2022/12/08 13:26:26;;;;;;;17.30;6.20;;;;;;;2.11;80.28;99775.17;24625;1330;3026812;-72
2022/12/08 13:29:02;;;;;;;13.50;5.80;;;;;;;2.03;81.58;99772.94;24534;1323;3052033;-71
2022/12/08 13:31:45;;;;;;;12.60;6.60;;;;;;;1.94;81.86;99771.58;24569;1339;3054384;-72
2022/12/08 13:34:15;;;;;;;11.50;4.70;;;;;;;2.04;82.06;99768.95;24628;1331;3049255;-73
2022/12/08 13:37:08;;;;;;;12.20;5.00;;;;;;;2.67;80.54;99760.99;24678;1333;3026853;-70
2022/12/08 13:40:17;;;;;;;11.00;5.30;;;;;;;3.19;78.12;99770.78;24552;1332;3052480;-72
2022/12/08 13:43:09;;;;;;;12.20;6.00;;;;;;;3.24;77.31;99773.10;24592;1328;3057130;-70
2022/12/08 13:45:39;;;;;;;12.10;5.60;;;;;;;3.12;77.80;99772.89;24533;1323;3052639;-70
2022/12/08 13:48:23;;;;;;;11.40;6.20;;;;;;;2.93;78.13;99770.41;24547;1336;3025905;-72
2022/12/08 13:51:02;;;;;;;16.10;6.70;;;;;;;2.81;78.66;99770.17;24587;1329;3056263;-72
2022/12/08 13:53:37;;;;;;;13.30;6.70;;;;;;;2.63;79.23;99773.35;24609;1331;3052041;-70
2022/12/08 13:56:06;;;;;;;15.90;6.20;;;;;;;2.49;79.99;99768.14;24556;1322;3053899;-68
2022/12/08 13:58:36;;;;;;;11.90;6.20;;;;;;;2.32;80.82;99769.90;24511;1333;3026048;-70
2022/12/08 14:01:11;;;;;;;12.40;6.20;;;;;;;2.31;81.14;99769.23;24575;1330;3026263;-71
2022/12/08 14:03:49;;;;;;;10.10;5.50;;;;;;;2.34;81.17;99770.89;24651;1330;3049227;-65